Time;durP1;ratioP1;P1;durP2;ratioP2;P2;SDS_P1;SDS_P2;PMS_P1;PMS_P2;Temp;Humidity;BMP_temperature;BMP_pressure;BME280_temperature;BME280_humidity;BME280_pressure;Samples;Min_cycle;Max_cycle;Signal;HPM_P1;HPM_P2
2022/01/18 00:00:01;;;;;;;30.55;8.85;;;;;;;;;;6172346;28;20077;-62
2022/01/18 00:03:02;;;;;;;29.42;7.68;;;;;;;;;;6176254;28;20043;-61
2022/01/18 00:06:03;;;;;;;20.40;7.00;;;;;;;;;;6171655;28;20051;-61
2022/01/18 00:09:04;;;;;;;27.80;8.10;;;;;;;;;;6171603;28;20050;-62
2022/01/18 00:18:27;;;;;;;27.67;7.90;;;;;;;;;;6172454;28;20137;-62
2022/01/18 00:24:28;;;;;;;24.45;6.28;;;;;;;;;;6171484;28;19925;-61
2022/01/18 00:27:29;;;;;;;24.30;6.63;;;;;;;;;;6172265;28;20050;-61
2022/01/18 00:36:57;;;;;;;16.88;6.20;;;;;;;;;;6182031;28;20086;-62
2022/01/18 00:39:58;;;;;;;24.33;5.93;;;;;;;;;;6182042;28;20560;-61
2022/01/18 00:42:58;;;;;;;20.35;7.18;;;;;;;;;;6184004;28;20058;-61
2022/01/18 00:45:59;;;;;;;23.67;6.47;;;;;;;;;;6184607;28;20141;-61
2022/01/18 00:49:01;;;;;;;23.35;5.97;;;;;;;;;;6182739;28;20050;-62
2022/01/18 00:52:04;;;;;;;17.85;5.80;;;;;;;;;;6182735;28;20043;-61
2022/01/18 00:55:05;;;;;;;19.63;5.68;;;;;;;;;;6195067;28;20516;-61
2022/01/18 00:58:06;;;;;;;21.80;7.18;;;;;;;;;;6185229;28;20046;-61
2022/01/18 01:01:07;;;;;;;17.08;5.70;;;;;;;;;;6176211;28;20093;-62
2022/01/18 01:04:08;;;;;;;23.95;7.10;;;;;;;;;;6182666;28;20062;-61
2022/01/18 01:07:08;;;;;;;23.48;6.18;;;;;;;;;;6182876;28;20050;-61
2022/01/18 01:10:09;;;;;;;18.73;5.50;;;;;;;;;;6182993;28;20477;-61
2022/01/18 01:13:11;;;;;;;24.23;5.88;;;;;;;;;;6180248;28;20054;-61
2022/01/18 01:16:43;;;;;;;24.00;6.75;;;;;;;;;;6184388;28;20051;-61
2022/01/18 01:45:55;;;;;;;21.15;6.43;;;;;;;;;;6181961;28;20104;-62
2022/01/18 01:48:59;;;;;;;20.67;6.85;;;;;;;;;;6183144;28;20561;-61
2022/01/18 01:52:04;;;;;;;19.98;5.45;;;;;;;;;;6183627;28;20135;-62
2022/01/18 01:55:05;;;;;;;28.15;6.25;;;;;;;;;;6180292;28;20060;-61
2022/01/18 01:58:06;;;;;;;24.48;6.78;;;;;;;;;;6183144;28;20054;-61
2022/01/18 02:01:07;;;;;;;21.55;6.22;;;;;;;;;;6182671;28;20142;-61
2022/01/18 02:04:08;;;;;;;21.02;6.47;;;;;;;;;;6181580;28;20054;-61
2022/01/18 02:07:09;;;;;;;26.80;6.93;;;;;;;;;;6181263;28;20429;-61
2022/01/18 02:10:10;;;;;;;16.52;5.20;;;;;;;;;;6182819;28;20051;-62
2022/01/18 02:13:13;;;;;;;21.60;7.22;;;;;;;;;;6182752;28;20193;-61
2022/01/18 02:21:45;;;;;;;18.08;5.78;;;;;;;;;;6183899;28;20100;-61
2022/01/18 02:22:55;;;;;;;22.25;6.50;;;;;;;;;;6186523;28;20120;-61
2022/01/18 02:25:57;;;;;;;22.40;6.70;;;;;;;;;;6187313;28;20140;-62
2022/01/18 02:29:04;;;;;;;19.20;6.57;;;;;;;;;;6186011;28;20069;-60
2022/01/18 02:32:06;;;;;;;20.38;6.68;;;;;;;;;;6184687;28;20300;-61
2022/01/18 02:35:07;;;;;;;19.95;6.93;;;;;;;;;;6188900;28;20109;-62
2022/01/18 02:38:08;;;;;;;21.33;7.20;;;;;;;;;;6187333;28;20050;-62
2022/01/18 02:41:09;;;;;;;22.70;7.25;;;;;;;;;;6185635;28;20564;-61
2022/01/18 02:44:11;;;;;;;25.15;6.88;;;;;;;;;;6185962;28;20450;-61
2022/01/18 02:47:12;;;;;;;22.60;7.40;;;;;;;;;;6184658;28;20081;-62
2022/01/18 02:50:13;;;;;;;36.75;14.07;;;;;;;;;;6185872;28;20112;-61
2022/01/18 02:53:16;;;;;;;24.30;6.82;;;;;;;;;;6185147;28;20050;-61
2022/01/18 02:56:17;;;;;;;22.70;7.32;;;;;;;;;;6181529;28;20050;-61
2022/01/18 02:59:30;;;;;;;18.40;6.57;;;;;;;;;;6184430;28;20661;-61
2022/01/18 03:05:51;;;;;;;20.98;7.18;;;;;;;;;;6185298;28;20077;-61
2022/01/18 03:08:51;;;;;;;21.35;7.13;;;;;;;;;;6184011;28;20975;-61
2022/01/18 03:11:52;;;;;;;27.60;7.95;;;;;;;;;;6184183;28;20062;-61
2022/01/18 03:14:53;;;;;;;23.80;7.22;;;;;;;;;;6187844;28;20050;-62
2022/01/18 03:17:54;;;;;;;29.58;7.53;;;;;;;;;;6184673;28;20046;-61
2022/01/18 03:20:55;;;;;;;24.10;6.78;;;;;;;;;;6183481;28;20554;-62
2022/01/18 03:24:11;;;;;;;22.93;7.33;;;;;;;;;;6185683;28;20050;-61
2022/01/18 03:30:38;;;;;;;23.48;6.85;;;;;;;;;;6184957;28;20070;-62
2022/01/18 03:33:38;;;;;;;24.52;6.75;;;;;;;;;;6186030;28;20112;-62
2022/01/18 03:36:39;;;;;;;20.83;6.47;;;;;;;;;;6184519;28;20078;-63
2022/01/18 03:39:40;;;;;;;23.33;7.28;;;;;;;;;;6186053;28;20545;-63
2022/01/18 03:42:43;;;;;;;26.88;8.93;;;;;;;;;;6181977;28;20105;-63
2022/01/18 03:45:45;;;;;;;29.02;7.45;;;;;;;;;;6184037;28;20096;-63
2022/01/18 03:48:50;;;;;;;23.45;7.00;;;;;;;;;;6178543;28;20096;-62
2022/01/18 03:51:51;;;;;;;23.35;6.05;;;;;;;;;;6184642;28;20057;-62
2022/01/18 03:54:52;;;;;;;23.45;6.47;;;;;;;;;;6183083;28;20042;-62
2022/01/18 03:57:52;;;;;;;21.02;6.35;;;;;;;;;;6183412;28;20241;-62
2022/01/18 04:00:53;;;;;;;20.55;6.65;;;;;;;;;;6182719;28;20047;-62
2022/01/18 04:03:54;;;;;;;20.92;7.80;;;;;;;;;;6185381;28;20526;-62
2022/01/18 04:06:55;;;;;;;21.75;7.05;;;;;;;;;;6184501;28;20050;-62
2022/01/18 04:09:55;;;;;;;19.17;6.25;;;;;;;;;;6184376;28;20479;-62
2022/01/18 04:12:56;;;;;;;19.67;6.65;;;;;;;;;;6181235;28;20129;-62
2022/01/18 04:15:57;;;;;;;22.50;6.97;;;;;;;;;;6184191;28;20167;-62
2022/01/18 04:19:22;;;;;;;17.92;6.70;;;;;;;;;;6182845;28;20445;-62
2022/01/18 04:26:02;;;;;;;18.10;6.28;;;;;;;;;;6180638;28;20060;-62
2022/01/18 04:29:03;;;;;;;21.48;7.57;;;;;;;;;;6184454;28;20431;-62
2022/01/18 04:32:04;;;;;;;19.60;6.38;;;;;;;;;;6176129;28;20051;-62
2022/01/18 04:35:05;;;;;;;22.10;6.88;;;;;;;;;;6170775;28;20082;-66
2022/01/18 04:38:06;;;;;;;22.58;6.97;;;;;;;;;;6183594;28;20051;-62
2022/01/18 04:41:11;;;;;;;16.77;6.22;;;;;;;;;;6183383;28;20139;-62
2022/01/18 04:50:54;;;;;;;24.77;6.85;;;;;;;;;;6191266;28;20035;-62
2022/01/18 04:53:57;;;;;;;;;;;;;;;;;;6171956;28;20059;-61
2022/01/18 04:59:58;;;;;;;14.90;5.15;;;;;;;;;;6170460;28;20480;-63
2022/01/18 05:02:59;;;;;;;16.27;6.22;;;;;;;;;;6183957;28;20108;-62
2022/01/18 05:06:07;;;;;;;19.40;6.18;;;;;;;;;;6195089;28;20141;-62
2022/01/18 05:09:10;;;;;;;19.95;6.38;;;;;;;;;;6193481;28;20077;-62
2022/01/18 05:12:23;;;;;;;;;;;;;;;;;;6193490;28;20074;-62
2022/01/18 05:22:58;;;;;;;22.13;5.50;;;;;;;;;;6180113;28;20410;-61
2022/01/18 05:24:57;;;;;;;20.23;6.05;;;;;;;;;;6190921;28;20121;-62
2022/01/18 05:28:00;;;;;;;21.63;6.27;;;;;;;;;;6194158;28;20485;-62
2022/01/18 05:31:00;;;;;;;;;;;;;;;;;;6193770;28;20390;-62
2022/01/18 05:34:01;;;;;;;18.63;6.18;;;;;;;;;;6185435;28;19925;-62
2022/01/18 05:37:02;;;;;;;16.38;5.50;;;;;;;;;;6183907;28;20077;-61
2022/01/18 05:40:03;;;;;;;20.08;5.45;;;;;;;;;;6181709;28;20054;-61
2022/01/18 05:43:04;;;;;;;18.75;5.85;;;;;;;;;;6181349;28;20060;-62
2022/01/18 05:46:05;;;;;;;22.88;5.90;;;;;;;;;;6193930;28;20046;-62
2022/01/18 05:49:05;;;;;;;19.83;5.53;;;;;;;;;;6193452;28;20124;-61
2022/01/18 05:52:07;;;;;;;25.50;5.57;;;;;;;;;;6193085;28;20050;-61
2022/01/18 05:55:09;;;;;;;14.85;5.45;;;;;;;;;;6182924;28;20197;-61
2022/01/18 05:58:09;;;;;;;23.85;6.07;;;;;;;;;;6182977;28;20065;-61
2022/01/18 06:01:26;;;;;;;21.67;6.25;;;;;;;;;;6180737;28;20475;-61
2022/01/18 06:07:46;;;;;;;20.88;6.45;;;;;;;;;;6174582;28;20149;-61
2022/01/18 06:10:47;;;;;;;16.48;5.50;;;;;;;;;;6179611;28;20055;-61
2022/01/18 06:13:48;;;;;;;23.58;5.88;;;;;;;;;;6180464;28;20129;-61
2022/01/18 06:16:48;;;;;;;19.60;5.45;;;;;;;;;;6181175;28;20501;-61
2022/01/18 06:19:49;;;;;;;25.33;6.60;;;;;;;;;;6186357;28;20051;-61
2022/01/18 06:22:51;;;;;;;23.60;5.95;;;;;;;;;;6181427;28;20502;-61
2022/01/18 06:25:52;;;;;;;15.23;5.40;;;;;;;;;;6180767;28;20046;-61
2022/01/18 06:28:56;;;;;;;24.48;5.88;;;;;;;;;;6178748;28;20069;-62
2022/01/18 06:31:57;;;;;;;16.48;5.70;;;;;;;;;;6180964;28;20392;-61
2022/01/18 06:34:58;;;;;;;19.55;5.28;;;;;;;;;;6182174;28;20053;-62
2022/01/18 06:37:59;;;;;;;26.50;6.63;;;;;;;;;;6180425;28;20573;-61
2022/01/18 06:40:59;;;;;;;17.50;6.10;;;;;;;;;;6177814;28;20050;-69
2022/01/18 06:44:00;;;;;;;17.50;5.25;;;;;;;;;;6180317;28;20125;-62
2022/01/18 06:47:01;;;;;;;17.10;5.78;;;;;;;;;;6183187;28;20061;-61
2022/01/18 06:50:03;;;;;;;24.35;6.68;;;;;;;;;;6178480;28;20056;-61
2022/01/18 06:53:04;;;;;;;24.15;6.70;;;;;;;;;;6181516;28;20074;-62
2022/01/18 06:56:05;;;;;;;18.63;6.05;;;;;;;;;;6180981;28;20072;-61
2022/01/18 06:59:07;;;;;;;19.98;5.63;;;;;;;;;;6183784;28;20065;-61
2022/01/18 07:02:08;;;;;;;;;;;;;;;;;;6185129;28;20116;-62
2022/01/18 07:05:09;;;;;;;17.27;5.75;;;;;;;;;;6190815;28;19926;-61
2022/01/18 07:08:10;;;;;;;23.45;6.40;;;;;;;;;;6188947;28;20065;-61
2022/01/18 07:11:10;;;;;;;23.17;6.00;;;;;;;;;;6187382;28;20062;-61
2022/01/18 07:14:11;;;;;;;18.02;5.97;;;;;;;;;;6187156;28;20490;-61
2022/01/18 07:17:12;;;;;;;23.20;6.60;;;;;;;;;;6180358;28;20054;-61
2022/01/18 07:20:12;;;;;;;23.90;6.25;;;;;;;;;;6185163;28;20521;-61
2022/01/18 07:23:13;;;;;;;21.48;6.55;;;;;;;;;;6183932;28;20042;-61
2022/01/18 07:26:14;;;;;;;24.88;6.88;;;;;;;;;;6186486;28;20085;-61
2022/01/18 07:29:14;;;;;;;22.92;6.88;;;;;;;;;;6188054;28;20150;-62
2022/01/18 07:32:15;;;;;;;22.08;7.50;;;;;;;;;;6178559;28;20798;-62
2022/01/18 07:35:16;;;;;;;25.50;7.82;;;;;;;;;;6186095;28;20522;-62
2022/01/18 07:38:18;;;;;;;27.65;7.68;;;;;;;;;;6184513;28;20596;-61
2022/01/18 07:41:18;;;;;;;20.85;7.63;;;;;;;;;;6186797;28;20437;-61
2022/01/18 07:44:19;;;;;;;25.02;7.85;;;;;;;;;;6186935;28;20145;-61
2022/01/18 07:47:20;;;;;;;25.17;8.00;;;;;;;;;;6184048;28;20077;-60
2022/01/18 07:50:21;;;;;;;29.08;7.95;;;;;;;;;;6186479;28;20568;-61
2022/01/18 07:53:22;;;;;;;39.67;9.50;;;;;;;;;;6185605;28;20074;-62
2022/01/18 07:56:22;;;;;;;36.53;10.55;;;;;;;;;;6183538;28;20047;-61
2022/01/18 07:59:23;;;;;;;41.85;12.43;;;;;;;;;;6183506;28;20125;-61
2022/01/18 08:02:24;;;;;;;37.63;10.77;;;;;;;;;;6182770;28;20149;-61
2022/01/18 08:05:24;;;;;;;28.70;8.13;;;;;;;;;;6184866;28;20054;-61
2022/01/18 08:08:28;;;;;;;32.75;9.80;;;;;;;;;;6184058;28;20121;-61
2022/01/18 08:11:29;;;;;;;22.48;8.45;;;;;;;;;;6179404;28;20061;-61
2022/01/18 08:14:31;;;;;;;37.60;12.15;;;;;;;;;;6182900;28;20532;-61
2022/01/18 08:17:32;;;;;;;25.10;7.85;;;;;;;;;;6183212;28;20157;-61
2022/01/18 08:20:33;;;;;;;34.63;9.80;;;;;;;;;;6186016;28;20043;-61
2022/01/18 08:23:33;;;;;;;28.95;8.80;;;;;;;;;;6192554;28;20046;-61
2022/01/18 08:26:34;;;;;;;31.58;11.50;;;;;;;;;;6195330;28;20049;-61
2022/01/18 08:29:36;;;;;;;29.10;9.23;;;;;;;;;;6192223;28;20062;-61
2022/01/18 08:32:37;;;;;;;33.88;10.05;;;;;;;;;;6193137;28;20042;-61
2022/01/18 08:35:39;;;;;;;21.33;7.88;;;;;;;;;;6190793;28;20477;-61
2022/01/18 08:38:41;;;;;;;28.67;8.68;;;;;;;;;;6184459;28;20054;-61
2022/01/18 08:41:42;;;;;;;24.52;8.00;;;;;;;;;;6193786;28;20050;-61
2022/01/18 08:44:43;;;;;;;25.00;7.93;;;;;;;;;;6191202;28;20115;-61
2022/01/18 08:47:44;;;;;;;28.73;7.67;;;;;;;;;;6194023;28;20046;-60
2022/01/18 08:50:45;;;;;;;27.52;8.77;;;;;;;;;;6194783;28;20542;-61
2022/01/18 08:53:48;;;;;;;23.35;7.90;;;;;;;;;;6192823;28;20046;-61
2022/01/18 08:56:48;;;;;;;27.95;9.48;;;;;;;;;;6193140;28;20061;-61
2022/01/18 08:59:50;;;;;;;20.85;8.95;;;;;;;;;;6193342;28;20132;-61
2022/01/18 09:02:51;;;;;;;30.73;11.33;;;;;;;;;;6193364;28;20112;-61
2022/01/18 09:05:52;;;;;;;31.77;10.73;;;;;;;;;;6194251;28;20046;-61
2022/01/18 09:08:56;;;;;;;26.75;9.95;;;;;;;;;;6188397;28;20133;-60
2022/01/18 09:11:57;;;;;;;28.48;9.82;;;;;;;;;;6193712;28;20050;-61
2022/01/18 09:15:00;;;;;;;28.00;9.60;;;;;;;;;;6190673;28;20120;-61
2022/01/18 09:18:01;;;;;;;25.35;9.63;;;;;;;;;;6184040;28;20067;-61
2022/01/18 09:21:02;;;;;;;27.83;8.90;;;;;;;;;;6185118;28;20121;-61
2022/01/18 09:24:03;;;;;;;21.63;8.30;;;;;;;;;;6175768;28;20180;-61
2022/01/18 09:27:04;;;;;;;26.95;8.90;;;;;;;;;;6193391;28;20050;-61
2022/01/18 09:30:05;;;;;;;34.42;10.48;;;;;;;;;;6191610;28;20049;-61
2022/01/18 09:33:06;;;;;;;29.00;10.32;;;;;;;;;;6192088;28;20047;-61
2022/01/18 09:36:07;;;;;;;30.13;10.18;;;;;;;;;;6190815;28;20050;-61
2022/01/18 09:39:08;;;;;;;22.85;9.73;;;;;;;;;;6191300;28;20105;-60
2022/01/18 09:42:10;;;;;;;34.80;11.30;;;;;;;;;;6186021;28;20065;-61
2022/01/18 09:45:14;;;;;;;30.17;11.00;;;;;;;;;;6192873;28;20088;-60
2022/01/18 09:48:15;;;;;;;27.58;10.07;;;;;;;;;;6188029;28;20074;-60
2022/01/18 09:51:16;;;;;;;34.70;9.75;;;;;;;;;;6183384;28;20468;-60
2022/01/18 09:54:17;;;;;;;28.88;8.82;;;;;;;;;;6181249;28;20085;-60
2022/01/18 09:57:18;;;;;;;19.63;6.88;;;;;;;;;;6180245;28;20076;-60
2022/01/18 10:00:20;;;;;;;21.60;7.93;;;;;;;;;;6180356;28;20054;-61
2022/01/18 10:03:33;;;;;;;31.42;8.68;;;;;;;;;;6182209;28;20405;-60
2022/01/18 10:06:35;;;;;;;17.00;7.05;;;;;;;;;;6184007;28;20046;-60
2022/01/18 10:09:37;;;;;;;19.63;7.82;;;;;;;;;;6179708;28;20516;-61
2022/01/18 10:12:38;;;;;;;22.15;6.68;;;;;;;;;;6181244;28;20070;-60
2022/01/18 10:15:38;;;;;;;18.30;6.80;;;;;;;;;;6180036;28;20468;-60
2022/01/18 10:18:50;;;;;;;22.27;7.18;;;;;;;;;;6181318;28;20050;-61
2022/01/18 10:21:51;;;;;;;20.58;7.05;;;;;;;;;;6184496;28;20125;-63
2022/01/18 10:24:55;;;;;;;20.42;7.90;;;;;;;;;;6182796;28;21172;-60
2022/01/18 10:27:56;;;;;;;18.85;7.38;;;;;;;;;;6182831;28;20066;-65
2022/01/18 10:31:00;;;;;;;30.00;9.02;;;;;;;;;;6181342;28;20086;-60
2022/01/18 10:37:41;;;;;;;18.45;6.25;;;;;;;;;;6184630;28;20054;-60
2022/01/18 10:40:41;;;;;;;25.42;8.52;;;;;;;;;;6182631;28;20532;-59
2022/01/18 10:43:42;;;;;;;18.83;7.13;;;;;;;;;;6184078;28;20058;-60
2022/01/18 10:46:57;;;;;;;25.05;6.28;;;;;;;;;;6182061;28;20530;-60
2022/01/18 10:50:07;;;;;;;19.90;6.18;;;;;;;;;;6185816;28;20046;-60
2022/01/18 10:53:22;;;;;;;24.40;7.00;;;;;;;;;;6185630;28;20791;-60
2022/01/18 10:56:23;;;;;;;15.65;6.70;;;;;;;;;;6187359;28;20144;-60
2022/01/18 10:59:25;;;;;;;18.40;6.63;;;;;;;;;;6184410;28;20043;-59
2022/01/18 11:02:26;;;;;;;25.40;7.22;;;;;;;;;;6185437;28;20054;-59
2022/01/18 11:05:29;;;;;;;21.30;7.93;;;;;;;;;;6188285;28;20186;-60
2022/01/18 11:08:30;;;;;;;21.30;7.25;;;;;;;;;;6186369;28;20057;-60
2022/01/18 11:11:30;;;;;;;21.60;6.72;;;;;;;;;;6184649;28;20568;-59
2022/01/18 11:14:32;;;;;;;19.13;7.03;;;;;;;;;;6185835;28;20042;-60
2022/01/18 11:17:39;;;;;;;24.25;7.82;;;;;;;;;;6192507;28;20072;-59
2022/01/18 11:20:43;;;;;;;17.25;7.53;;;;;;;;;;6192623;28;20715;-60
2022/01/18 11:23:45;;;;;;;22.77;6.95;;;;;;;;;;6191948;28;20145;-59
2022/01/18 11:26:48;;;;;;;18.23;6.75;;;;;;;;;;6195279;28;20489;-59
2022/01/18 11:29:49;;;;;;;20.33;6.35;;;;;;;;;;6191589;28;20104;-60
2022/01/18 11:32:53;;;;;;;19.63;7.70;;;;;;;;;;6195084;28;20050;-61
2022/01/18 11:36:10;;;;;;;19.75;6.78;;;;;;;;;;6192546;28;20046;-60
2022/01/18 11:39:11;;;;;;;16.55;6.10;;;;;;;;;;6190881;28;20058;-60
2022/01/18 11:42:13;;;;;;;21.08;7.20;;;;;;;;;;6184301;28;20418;-60
2022/01/18 11:45:26;;;;;;;22.38;7.50;;;;;;;;;;6183313;28;20061;-60
2022/01/18 11:48:26;;;;;;;;;;;;;;;;;;6186326;28;20054;-60
2022/01/18 11:51:53;;;;;;;20.08;6.97;;;;;;;;;;6184761;28;19932;-60
2022/01/18 11:58:10;;;;;;;25.67;7.53;;;;;;;;;;6180475;28;20077;-60
2022/01/18 12:01:12;;;;;;;21.58;7.40;;;;;;;;;;6181393;28;20568;-60
2022/01/18 12:04:13;;;;;;;19.23;7.32;;;;;;;;;;6184399;28;20073;-60
2022/01/18 12:07:36;;;;;;;29.15;8.55;;;;;;;;;;6184097;28;20051;-61
2022/01/18 12:10:43;;;;;;;28.70;10.55;;;;;;;;;;6140680;28;1102106;-60
2022/01/18 12:13:45;;;;;;;31.92;9.65;;;;;;;;;;6185733;28;20121;-61
2022/01/18 12:16:49;;;;;;;22.17;8.88;;;;;;;;;;6185160;28;20489;-60
2022/01/18 12:19:49;;;;;;;24.80;9.43;;;;;;;;;;6185553;28;20051;-60
2022/01/18 12:23:07;;;;;;;22.42;10.25;;;;;;;;;;6186301;28;20057;-60
2022/01/18 12:30:37;;;;;;;20.42;6.70;;;;;;;;;;6187787;28;20208;-60
2022/01/18 12:33:44;;;;;;;18.08;7.13;;;;;;;;;;6178136;28;20046;-60
2022/01/18 12:36:45;;;;;;;22.40;7.97;;;;;;;;;;6184099;28;20171;-61
2022/01/18 12:39:57;;;;;;;25.60;7.85;;;;;;;;;;6185722;28;20494;-60
2022/01/18 12:46:00;;;;;;;22.03;7.73;;;;;;;;;;6185119;28;19925;-60
2022/01/18 12:49:03;;;;;;;22.05;8.13;;;;;;;;;;6182834;28;20062;-60
2022/01/18 12:52:04;;;;;;;24.23;8.60;;;;;;;;;;6180643;28;20050;-61
2022/01/18 12:55:05;;;;;;;28.75;9.40;;;;;;;;;;6183368;28;20070;-61
2022/01/18 12:58:10;;;;;;;28.58;8.98;;;;;;;;;;6193093;28;20132;-60
2022/01/18 13:01:12;;;;;;;26.15;9.05;;;;;;;;;;6185510;28;20410;-61
2022/01/18 13:04:13;;;;;;;22.25;8.23;;;;;;;;;;6182825;28;20520;-60
2022/01/18 13:07:13;;;;;;;28.15;9.55;;;;;;;;;;6182327;28;20104;-61
2022/01/18 13:10:14;;;;;;;23.95;8.25;;;;;;;;;;6177683;28;20054;-60
2022/01/18 13:13:19;;;;;;;21.77;7.68;;;;;;;;;;6182844;28;20050;-60
2022/01/18 13:22:59;;;;;;;21.63;8.18;;;;;;;;;;6183286;28;20060;-61
2022/01/18 13:26:01;;;;;;;23.98;8.52;;;;;;;;;;6176464;28;20078;-60
2022/01/18 13:29:14;;;;;;;32.40;8.95;;;;;;;;;;6181682;28;20484;-60
2022/01/18 13:35:29;;;;;;;20.50;8.98;;;;;;;;;;6181358;28;20081;-60
2022/01/18 13:38:31;;;;;;;30.85;9.52;;;;;;;;;;6188928;28;20132;-61
2022/01/18 13:41:32;;;;;;;18.73;8.30;;;;;;;;;;6193164;28;20560;-61
2022/01/18 13:44:33;;;;;;;28.08;9.43;;;;;;;;;;6189550;28;20046;-59
2022/01/18 13:47:59;;;;;;;25.70;8.68;;;;;;;;;;6193034;28;20046;-62
2022/01/18 13:51:14;;;;;;;24.92;8.48;;;;;;;;;;6193456;28;20065;-59
2022/01/18 13:54:16;;;;;;;24.48;7.45;;;;;;;;;;6188562;28;20141;-60
2022/01/18 13:57:22;;;;;;;17.10;6.72;;;;;;;;;;6191838;28;20535;-62
2022/01/18 14:00:24;;;;;;;16.00;5.90;;;;;;;;;;6192206;28;20548;-65
2022/01/18 14:03:33;;;;;;;15.95;7.15;;;;;;;;;;6193921;28;20572;-61
2022/01/18 14:06:39;;;;;;;18.58;6.72;;;;;;;;;;6190821;28;20092;-61
2022/01/18 14:09:40;;;;;;;18.50;7.30;;;;;;;;;;6191224;28;20137;-59
2022/01/18 14:12:41;;;;;;;23.10;8.07;;;;;;;;;;6193545;28;20789;-59
2022/01/18 14:15:43;;;;;;;22.92;6.35;;;;;;;;;;6193280;28;20144;-59
2022/01/18 14:19:02;;;;;;;23.58;7.97;;;;;;;;;;6193562;28;20050;-59
2022/01/18 14:22:26;;;;;;;20.70;6.75;;;;;;;;;;6195571;28;20093;-59
2022/01/18 14:25:30;;;;;;;17.30;5.47;;;;;;;;;;6195274;28;20057;-58
2022/01/18 14:28:31;;;;;;;14.00;5.30;;;;;;;;;;6192002;28;20061;-60
2022/01/18 14:31:31;;;;;;;15.77;5.88;;;;;;;;;;6190747;28;20121;-59
2022/01/18 14:34:40;;;;;;;18.30;6.75;;;;;;;;;;6190375;28;20508;-60
2022/01/18 14:37:50;;;;;;;19.35;7.22;;;;;;;;;;6189332;28;20069;-59
2022/01/18 14:40:53;;;;;;;23.92;7.47;;;;;;;;;;6191483;28;20069;-59
2022/01/18 14:44:03;;;;;;;25.58;8.38;;;;;;;;;;6188808;28;20046;-59
2022/01/18 14:47:37;;;;;;;24.35;8.02;;;;;;;;;;6193434;28;20062;-60
2022/01/18 14:50:31;;;;;;;21.83;8.48;;;;;;;;;;6189675;28;20128;-60
2022/01/18 14:53:32;;;;;;;24.98;8.80;;;;;;;;;;6185198;28;20080;-60
2022/01/18 14:56:33;;;;;;;23.20;8.55;;;;;;;;;;6181868;28;20440;-60
2022/01/18 14:59:34;;;;;;;25.98;9.07;;;;;;;;;;6180033;28;20059;-60
2022/01/18 15:02:35;;;;;;;24.95;9.45;;;;;;;;;;6184688;28;20088;-60
2022/01/18 15:05:36;;;;;;;26.50;10.35;;;;;;;;;;6177220;28;20054;-60
2022/01/18 15:08:36;;;;;;;31.08;10.80;;;;;;;;;;6180796;28;20054;-60
2022/01/18 15:11:37;;;;;;;30.38;11.27;;;;;;;;;;6183582;28;20050;-60
2022/01/18 15:14:37;;;;;;;30.05;9.85;;;;;;;;;;6181076;28;20447;-60
2022/01/18 15:17:39;;;;;;;29.35;10.25;;;;;;;;;;6183618;28;20046;-60
2022/01/18 15:20:40;;;;;;;30.85;10.45;;;;;;;;;;6181829;28;20821;-59
2022/01/18 15:23:40;;;;;;;30.38;11.20;;;;;;;;;;6185558;28;20046;-59
2022/01/18 15:26:41;;;;;;;36.83;12.32;;;;;;;;;;6184420;28;20409;-60
2022/01/18 15:29:43;;;;;;;31.77;11.52;;;;;;;;;;6193191;28;20885;-60
2022/01/18 15:32:45;;;;;;;31.77;12.15;;;;;;;;;;6194180;28;20057;-60
2022/01/18 15:35:46;;;;;;;38.50;13.27;;;;;;;;;;6195649;28;20073;-59
2022/01/18 15:38:47;;;;;;;38.85;12.75;;;;;;;;;;6189951;28;20937;-59
2022/01/18 15:41:48;;;;;;;40.08;13.35;;;;;;;;;;6196575;28;20772;-61
2022/01/18 15:44:49;;;;;;;43.53;15.15;;;;;;;;;;6187527;28;20520;-62
2022/01/18 15:47:50;;;;;;;46.15;13.55;;;;;;;;;;6190983;28;20085;-61
2022/01/18 15:50:50;;;;;;;43.13;14.73;;;;;;;;;;6197814;28;20072;-61
2022/01/18 15:53:52;;;;;;;48.63;15.63;;;;;;;;;;6196537;28;20042;-61
2022/01/18 15:56:53;;;;;;;32.73;13.37;;;;;;;;;;6193468;28;20085;-61
2022/01/18 15:59:53;;;;;;;45.33;15.30;;;;;;;;;;6186700;28;20349;-61
2022/01/18 16:02:54;;;;;;;47.17;15.85;;;;;;;;;;6194135;28;20050;-60
2022/01/18 16:05:56;;;;;;;43.33;16.40;;;;;;;;;;6197535;28;20054;-61
2022/01/18 16:08:57;;;;;;;50.80;16.95;;;;;;;;;;6200421;28;20051;-60
2022/01/18 16:11:58;;;;;;;53.13;17.05;;;;;;;;;;6198361;28;20181;-60
2022/01/18 16:14:58;;;;;;;43.00;16.35;;;;;;;;;;6188159;28;21359;-60
2022/01/18 16:17:59;;;;;;;44.08;16.90;;;;;;;;;;6190794;28;20564;-61
2022/01/18 16:21:00;;;;;;;135.45;33.55;;;;;;;;;;6197946;28;20054;-61
2022/01/18 16:24:01;;;;;;;149.15;35.25;;;;;;;;;;6190994;28;20046;-61
2022/01/18 16:27:01;;;;;;;128.90;33.33;;;;;;;;;;6183275;28;20050;-61
2022/01/18 16:30:04;;;;;;;78.88;22.48;;;;;;;;;;6184212;28;20085;-61
2022/01/18 16:33:05;;;;;;;77.70;22.67;;;;;;;;;;6191295;28;20545;-60
2022/01/18 16:36:06;;;;;;;54.75;19.58;;;;;;;;;;6188895;28;20065;-61
2022/01/18 16:39:06;;;;;;;46.90;17.45;;;;;;;;;;6189694;28;20081;-61
2022/01/18 16:42:07;;;;;;;57.85;18.13;;;;;;;;;;6199355;28;20076;-60
2022/01/18 16:45:09;;;;;;;46.55;16.70;;;;;;;;;;6191664;28;20045;-60
2022/01/18 16:48:10;;;;;;;43.65;15.85;;;;;;;;;;6197268;28;20061;-60
2022/01/18 16:51:11;;;;;;;49.22;16.05;;;;;;;;;;6201152;28;20153;-60
2022/01/18 16:54:11;;;;;;;48.33;15.27;;;;;;;;;;6192573;28;20046;-60
2022/01/18 16:57:12;;;;;;;42.70;15.95;;;;;;;;;;6192392;28;20050;-58
2022/01/18 17:00:15;;;;;;;43.08;15.70;;;;;;;;;;6192514;28;20051;-60
2022/01/18 17:03:16;;;;;;;42.92;15.23;;;;;;;;;;6191924;28;20135;-60
2022/01/18 17:06:22;;;;;;;46.88;16.17;;;;;;;;;;6173240;28;20589;-60
2022/01/18 17:09:22;;;;;;;52.40;17.10;;;;;;;;;;6169736;28;20113;-60
2022/01/18 17:12:23;;;;;;;52.33;18.90;;;;;;;;;;6174720;28;20144;-60
2022/01/18 17:15:24;;;;;;;71.32;21.55;;;;;;;;;;6169235;28;20069;-60
2022/01/18 17:18:24;;;;;;;62.80;19.23;;;;;;;;;;6170785;28;20058;-60
2022/01/18 17:21:25;;;;;;;47.90;17.20;;;;;;;;;;6170093;28;20055;-60
2022/01/18 17:24:26;;;;;;;62.80;18.70;;;;;;;;;;6163347;28;20487;-60
2022/01/18 17:27:27;;;;;;;57.05;17.63;;;;;;;;;;6171394;28;20145;-60
2022/01/18 17:30:28;;;;;;;37.78;14.40;;;;;;;;;;6171893;28;20144;-60
2022/01/18 17:33:29;;;;;;;47.85;15.32;;;;;;;;;;6175191;28;20471;-60
2022/01/18 17:36:30;;;;;;;36.35;13.18;;;;;;;;;;6173502;28;20133;-60
2022/01/18 17:39:30;;;;;;;37.25;12.38;;;;;;;;;;6171911;28;20063;-60
2022/01/18 17:42:31;;;;;;;40.35;13.48;;;;;;;;;;6173074;28;20062;-60
2022/01/18 17:45:32;;;;;;;44.67;13.60;;;;;;;;;;6177530;28;20050;-60
2022/01/18 17:48:33;;;;;;;34.58;12.52;;;;;;;;;;6170581;28;20058;-60
2022/01/18 17:51:34;;;;;;;32.65;12.13;;;;;;;;;;6169596;28;20763;-60
2022/01/18 17:54:35;;;;;;;34.50;12.77;;;;;;;;;;6170013;28;20077;-60
2022/01/18 17:57:36;;;;;;;41.08;14.23;;;;;;;;;;6171496;28;21281;-60
2022/01/18 18:00:38;;;;;;;40.15;14.13;;;;;;;;;;6173695;28;20413;-60
2022/01/18 18:03:39;;;;;;;40.35;14.07;;;;;;;;;;6172178;28;20046;-60
2022/01/18 18:06:39;;;;;;;44.33;14.15;;;;;;;;;;6165693;28;20333;-60
2022/01/18 18:09:40;;;;;;;52.60;16.42;;;;;;;;;;6173156;28;20162;-60
2022/01/18 18:12:43;;;;;;;42.55;16.15;;;;;;;;;;6169543;28;20047;-60
2022/01/18 18:15:45;;;;;;;50.65;16.05;;;;;;;;;;6163009;28;20078;-60
2022/01/18 18:18:45;;;;;;;44.90;17.00;;;;;;;;;;6175931;28;20050;-59
2022/01/18 18:21:47;;;;;;;49.75;15.32;;;;;;;;;;6174218;28;20528;-59
2022/01/18 18:24:49;;;;;;;45.97;19.13;;;;;;;;;;6176612;28;20082;-59
2022/01/18 18:27:50;;;;;;;54.28;17.67;;;;;;;;;;6165626;28;20108;-60
2022/01/18 18:30:51;;;;;;;52.42;16.33;;;;;;;;;;6173877;28;20043;-60
2022/01/18 18:33:52;;;;;;;52.42;17.73;;;;;;;;;;6176588;28;20066;-61
2022/01/18 18:36:53;;;;;;;48.05;17.58;;;;;;;;;;6167326;28;20054;-61
2022/01/18 18:40:03;;;;;;;47.40;16.75;;;;;;;;;;6176950;28;20063;-61
2022/01/18 18:43:14;;;;;;;54.42;17.20;;;;;;;;;;6179343;28;20058;-61
2022/01/18 18:46:15;;;;;;;52.97;18.10;;;;;;;;;;6179022;28;20105;-60
2022/01/18 18:49:16;;;;;;;60.28;19.45;;;;;;;;;;6180438;28;20496;-60
2022/01/18 18:52:20;;;;;;;55.15;19.92;;;;;;;;;;6182155;28;20148;-61
2022/01/18 18:55:20;;;;;;;66.35;23.70;;;;;;;;;;6173948;28;20080;-62
2022/01/18 19:01:40;;;;;;;68.32;22.83;;;;;;;;;;6179686;28;20091;-59
2022/01/18 19:04:41;;;;;;;;;;;;;;;;;;6185065;28;20055;-61
2022/01/18 19:07:41;;;;;;;65.35;20.95;;;;;;;;;;6180340;28;19948;-61
2022/01/18 19:10:46;;;;;;;72.30;22.27;;;;;;;;;;6181991;28;20061;-60
2022/01/18 19:13:49;;;;;;;72.60;22.48;;;;;;;;;;6173867;28;20057;-62
2022/01/18 19:16:50;;;;;;;57.25;21.63;;;;;;;;;;6180856;28;20402;-60
2022/01/18 19:19:51;;;;;;;57.67;23.20;;;;;;;;;;6182649;28;20043;-60
2022/01/18 19:22:54;;;;;;;68.57;22.35;;;;;;;;;;6176053;28;20405;-60
2022/01/18 19:25:55;;;;;;;63.10;21.70;;;;;;;;;;6178743;28;20058;-60
2022/01/18 19:28:56;;;;;;;67.15;21.30;;;;;;;;;;6178053;28;20061;-62
2022/01/18 19:31:57;;;;;;;67.95;21.88;;;;;;;;;;6178879;28;20105;-61
2022/01/18 19:34:58;;;;;;;58.10;21.00;;;;;;;;;;6178148;28;20173;-61
2022/01/18 19:37:59;;;;;;;64.53;20.73;;;;;;;;;;6177223;28;20274;-60